createdAt,value
2017-11-29T00:01:09.422Z,97373.83
2017-11-29T00:03:36.882Z,97379.03
2017-11-29T00:06:04.646Z,97373.11
2017-11-29T00:08:32.765Z,97377.20
2017-11-29T00:11:00.257Z,97380.33
2017-11-29T00:13:28.258Z,97371.22
2017-11-29T00:15:55.719Z,97377.31
2017-11-29T00:18:23.179Z,97380.03
2017-11-29T00:20:50.938Z,97379.08
2017-11-29T00:23:18.402Z,97379.05
2017-11-29T00:25:45.869Z,97377.56
2017-11-29T00:28:13.500Z,97375.64
2017-11-29T00:30:40.965Z,97382.03
2017-11-29T00:33:08.417Z,97393.36
2017-11-29T00:35:36.231Z,97386.05
2017-11-29T00:38:03.691Z,97384.51
2017-11-29T00:40:31.154Z,97387.13
2017-11-29T00:42:58.994Z,97385.03
2017-11-29T00:45:26.445Z,97383.92
2017-11-29T00:47:54.301Z,97385.25
2017-11-29T00:50:22.294Z,97385.91
2017-11-29T00:52:49.763Z,97390.44
2017-11-29T00:55:17.225Z,97389.98
2017-11-29T00:57:45.301Z,97392.27
2017-11-29T01:00:12.758Z,97391.26
2017-11-29T01:02:40.216Z,97393.21
2017-11-29T01:05:07.988Z,97389.22
2017-11-29T01:07:35.445Z,97394.44
2017-11-29T01:10:02.909Z,97393.98
2017-11-29T01:12:30.665Z,97396.52
2017-11-29T01:14:58.169Z,97398.47
2017-11-29T01:17:25.638Z,97394.15
2017-11-29T01:19:53.357Z,97400.58
2017-11-29T01:22:20.818Z,97400.70
2017-11-29T01:24:48.280Z,97396.94
2017-11-29T01:27:16.043Z,97397.50
2017-11-29T01:29:43.499Z,97397.33
2017-11-29T01:32:10.956Z,97391.33
2017-11-29T01:34:39.030Z,97393.86
2017-11-29T01:37:06.507Z,97393.05
2017-11-29T01:39:33.958Z,97393.63
2017-11-29T01:42:01.690Z,97391.75
2017-11-29T01:44:29.166Z,97385.77
2017-11-29T01:46:56.624Z,97387.48
2017-11-29T01:49:25.033Z,97382.55
2017-11-29T01:51:52.496Z,97382.09
2017-11-29T01:54:19.950Z,97382.88
2017-11-29T01:56:48.018Z,97377.42
2017-11-29T01:59:15.474Z,97382.58
2017-11-29T02:01:42.926Z,97384.89
2017-11-29T02:04:10.713Z,97375.91
2017-11-29T02:06:41.010Z,97378.02
2017-11-29T02:09:08.467Z,97377.25
2017-11-29T02:11:36.186Z,97375.56
2017-11-29T02:14:03.650Z,97373.64
2017-11-29T02:16:31.109Z,97376.56
2017-11-29T02:18:58.841Z,97379.00
2017-11-29T02:21:26.314Z,97377.81
2017-11-29T02:23:53.824Z,97380.55
2017-11-29T02:26:21.885Z,97380.64
2017-11-29T02:28:49.362Z,97381.64
2017-11-29T02:31:17.140Z,97379.14
2017-11-29T02:33:45.142Z,97377.04
2017-11-29T02:36:12.602Z,97377.11
2017-11-29T02:38:40.072Z,97378.77
2017-11-29T02:41:20.118Z,97377.16
2017-11-29T02:43:47.589Z,97383.41
2017-11-29T02:46:15.059Z,97381.09
2017-11-29T02:48:43.287Z,97379.77
2017-11-29T02:51:11.271Z,97380.47
2017-11-29T02:53:38.765Z,97376.36
2017-11-29T02:56:06.490Z,97368.38
2017-11-29T02:58:33.964Z,97374.62
2017-11-29T03:01:01.419Z,97374.47
2017-11-29T03:03:29.378Z,97375.39
2017-11-29T03:05:56.847Z,97377.63
2017-11-29T03:08:24.308Z,97366.30
2017-11-29T03:10:52.335Z,97365.50
2017-11-29T03:13:19.804Z,97370.59
2017-11-29T03:15:47.262Z,97366.09
2017-11-29T03:18:15.095Z,97368.64
2017-11-29T03:20:42.564Z,97376.00
2017-11-29T03:23:10.030Z,97375.09
2017-11-29T03:25:38.054Z,97370.91
2017-11-29T03:28:05.509Z,97371.21
2017-11-29T03:30:32.985Z,97371.95
2017-11-29T03:33:00.772Z,97367.97
2017-11-29T03:35:28.230Z,97369.49
2017-11-29T03:37:55.694Z,97376.47
2017-11-29T03:40:24.017Z,97370.23
2017-11-29T03:42:51.479Z,97370.84
2017-11-29T03:45:18.939Z,97363.30
2017-11-29T03:47:46.811Z,97362.71
2017-11-29T03:50:14.268Z,97362.91
2017-11-29T03:52:42.675Z,97363.23
2017-11-29T03:55:10.408Z,97356.19
2017-11-29T03:57:37.866Z,97365.98
2017-11-29T04:00:05.333Z,97362.09
2017-11-29T04:02:33.355Z,97363.62
2017-11-29T04:05:00.815Z,97363.74
2017-11-29T04:07:28.282Z,97362.68
2017-11-29T04:09:56.042Z,97361.44
2017-11-29T04:12:23.522Z,97363.30
2017-11-29T04:14:50.981Z,97365.92
2017-11-29T04:17:18.789Z,97368.38
2017-11-29T04:19:46.255Z,97368.59
2017-11-29T04:22:13.732Z,97373.31
2017-11-29T04:24:41.724Z,97372.76
2017-11-29T04:27:09.182Z,97372.48
2017-11-29T04:29:36.638Z,97372.08
2017-11-29T04:32:04.415Z,97369.51
2017-11-29T04:34:31.882Z,97370.27
2017-11-29T04:36:59.339Z,97366.59
2017-11-29T04:39:27.409Z,97370.05
2017-11-29T04:41:54.930Z,97368.17
2017-11-29T04:44:22.383Z,97368.64
2017-11-29T04:46:50.099Z,97363.55
2017-11-29T04:49:17.563Z,97368.48
2017-11-29T04:51:45.024Z,97367.56
2017-11-29T04:54:15.243Z,97363.31
2017-11-29T04:56:42.702Z,97360.08
2017-11-29T04:59:10.169Z,97356.56
2017-11-29T05:01:37.928Z,97359.38
2017-11-29T05:04:05.409Z,97359.73
2017-11-29T05:06:32.866Z,97361.64
2017-11-29T05:09:00.509Z,97365.63
2017-11-29T05:11:27.973Z,97364.17
2017-11-29T05:13:55.442Z,97363.66
2017-11-29T05:16:23.307Z,97369.16
2017-11-29T05:18:50.765Z,97366.83
2017-11-29T05:21:18.222Z,97363.36
2017-11-29T05:23:46.290Z,97369.42
2017-11-29T05:26:13.748Z,97370.89
2017-11-29T05:28:41.208Z,97369.95
2017-11-29T05:31:09.294Z,97369.75
2017-11-29T05:33:36.753Z,97365.14
2017-11-29T05:36:04.220Z,97369.36
2017-11-29T05:38:31.975Z,97375.62
2017-11-29T05:40:59.441Z,97378.16
2017-11-29T05:43:26.906Z,97378.44
2017-11-29T05:45:54.667Z,97371.66
2017-11-29T05:48:22.136Z,97356.45
2017-11-29T05:50:49.608Z,97356.92
2017-11-29T05:53:17.353Z,97363.75
2017-11-29T05:55:46.355Z,97359.23
2017-11-29T05:58:13.813Z,97361.69
2017-11-29T06:00:41.699Z,97356.66
2017-11-29T06:03:09.158Z,97357.08
2017-11-29T06:05:36.626Z,97362.27
2017-11-29T06:08:04.564Z,97355.49
2017-11-29T06:10:32.027Z,97358.91
2017-11-29T06:12:59.489Z,97362.06
2017-11-29T06:15:27.567Z,97366.95
2017-11-29T06:17:55.026Z,97368.48
2017-11-29T06:20:22.486Z,97371.28
2017-11-29T06:22:50.238Z,97369.72
2017-11-29T06:25:17.693Z,97374.06
2017-11-29T06:27:45.163Z,97374.06
2017-11-29T06:30:12.934Z,97363.26
2017-11-29T06:32:40.391Z,97364.30
2017-11-29T06:35:07.853Z,97368.05
2017-11-29T06:37:35.992Z,97368.97
2017-11-29T06:40:03.464Z,97365.31
2017-11-29T06:42:30.927Z,97371.53
2017-11-29T06:44:58.743Z,97374.97
2017-11-29T06:47:26.208Z,97377.57
2017-11-29T06:49:53.661Z,97376.41
2017-11-29T06:52:21.579Z,97389.19
2017-11-29T06:54:49.030Z,97392.38
2017-11-29T06:57:16.920Z,97389.53
2017-11-29T07:06:28.601Z,97392.93
2017-11-29T07:08:56.069Z,97395.06
2017-11-29T07:11:23.529Z,97394.09
2017-11-29T07:13:51.265Z,97400.45
2017-11-29T07:16:18.725Z,97398.64
2017-11-29T07:18:46.196Z,97395.77
2017-11-29T07:21:13.962Z,97402.42
2017-11-29T07:23:41.451Z,97400.74
2017-11-29T07:26:08.909Z,97404.53
2017-11-29T07:28:36.649Z,97398.34
2017-11-29T07:31:04.132Z,97407.22
2017-11-29T07:33:31.609Z,97410.45
2017-11-29T07:35:59.642Z,97408.56
2017-11-29T07:38:27.102Z,97412.08
2017-11-29T07:40:54.559Z,97410.77
2017-11-29T07:43:22.320Z,97414.25
2017-11-29T07:45:49.786Z,97415.52
2017-11-29T07:48:17.251Z,97409.92
2017-11-29T07:50:45.021Z,97405.38
2017-11-29T07:53:12.488Z,97411.56
2017-11-29T07:55:39.972Z,97403.37
2017-11-29T07:58:08.319Z,97406.00
2017-11-29T08:00:35.783Z,97407.73
2017-11-29T08:03:03.243Z,97415.89
2017-11-29T08:05:30.999Z,97409.68
2017-11-29T08:07:58.467Z,97416.59
2017-11-29T08:10:25.947Z,97419.31
2017-11-29T08:12:53.691Z,97411.48
2017-11-29T08:15:21.161Z,97416.02
2017-11-29T08:17:48.634Z,97415.85
2017-11-29T08:20:16.995Z,97412.39
2017-11-29T08:22:44.459Z,97413.67
2017-11-29T08:25:11.918Z,97413.73
2017-11-29T08:27:39.586Z,97416.38
2017-11-29T08:30:07.047Z,97413.83
2017-11-29T08:32:34.508Z,97413.86
2017-11-29T08:35:02.362Z,97413.74
2017-11-29T08:37:29.831Z,97411.17
2017-11-29T08:39:57.305Z,97415.62
2017-11-29T08:42:25.073Z,97409.52
2017-11-29T08:44:52.528Z,97412.45
2017-11-29T08:47:20.003Z,97411.88
2017-11-29T08:49:47.731Z,97406.66
2017-11-29T08:52:15.195Z,97409.16
2017-11-29T08:54:42.656Z,97411.88
2017-11-29T08:57:10.423Z,97417.71
2017-11-29T08:59:38.285Z,97412.32
2017-11-29T09:02:05.744Z,97412.53
2017-11-29T09:04:33.580Z,97409.65
2017-11-29T09:07:01.038Z,97402.83
2017-11-29T09:09:28.494Z,97414.80
2017-11-29T09:11:56.182Z,97409.13
2017-11-29T09:14:23.647Z,97417.18
2017-11-29T09:16:51.106Z,97410.16
2017-11-29T09:19:19.099Z,97409.05
2017-11-29T09:21:46.571Z,97405.48
2017-11-29T09:24:14.046Z,97399.12
2017-11-29T09:26:41.783Z,97402.12
2017-11-29T09:29:09.249Z,97402.58
2017-11-29T09:31:36.714Z,97404.72
2017-11-29T09:34:04.479Z,97395.44
2017-11-29T09:36:31.941Z,97391.57
2017-11-29T09:38:59.404Z,97396.78
2017-11-29T09:41:27.158Z,97393.09
2017-11-29T09:43:54.614Z,97390.63
2017-11-29T09:46:22.075Z,97381.22
2017-11-29T09:48:49.794Z,97387.03
2017-11-29T09:51:17.257Z,97383.93
2017-11-29T09:53:44.843Z,97384.38
2017-11-29T09:56:12.562Z,97380.53
2017-11-29T09:58:40.367Z,97377.63
2017-11-29T10:01:08.450Z,97377.11
2017-11-29T10:03:36.142Z,97372.27
2017-11-29T10:06:03.601Z,97367.46
2017-11-29T10:08:31.138Z,97362.77
2017-11-29T10:10:59.134Z,97366.34
2017-11-29T10:13:26.607Z,97365.53
2017-11-29T10:15:54.443Z,97365.41
2017-11-29T10:18:22.125Z,97361.97
2017-11-29T10:20:49.607Z,97352.08
2017-11-29T10:23:17.077Z,97344.26
2017-11-29T10:25:44.818Z,97337.37
2017-11-29T10:28:12.284Z,97334.77
2017-11-29T10:30:39.746Z,97333.53
2017-11-29T10:33:07.505Z,97338.63
2017-11-29T10:35:35.038Z,97345.06
2017-11-29T10:38:02.514Z,97338.39
2017-11-29T10:40:30.527Z,97340.47
2017-11-29T10:42:57.984Z,97335.30
2017-11-29T10:45:25.450Z,97337.02
2017-11-29T10:47:53.376Z,97349.95
2017-11-29T10:50:21.030Z,97345.44
2017-11-29T10:52:48.491Z,97337.77
2017-11-29T10:55:16.511Z,97330.81
2017-11-29T10:57:44.336Z,97326.87
2017-11-29T11:00:11.799Z,97327.05
2017-11-29T11:02:40.405Z,97325.30
2017-11-29T11:05:07.858Z,97322.45
2017-11-29T11:07:35.314Z,97314.53
2017-11-29T11:10:03.109Z,97319.73
2017-11-29T11:12:30.566Z,97321.11
2017-11-29T11:14:58.023Z,97317.19
2017-11-29T11:17:25.776Z,97315.66
2017-11-29T11:19:53.241Z,97321.23
2017-11-29T11:22:20.715Z,97321.23
2017-11-29T11:24:48.469Z,97321.23
2017-11-29T11:27:15.931Z,97325.02
2017-11-29T11:29:43.396Z,97327.80
2017-11-29T11:32:11.062Z,97327.70
2017-11-29T11:34:38.534Z,97317.39
2017-11-29T11:37:05.986Z,97324.83
2017-11-29T11:39:33.837Z,97329.17
2017-11-29T11:42:01.324Z,97319.59
2017-11-29T11:44:29.147Z,97315.93
2017-11-29T11:46:57.143Z,97316.05
2017-11-29T11:49:24.684Z,97322.02
2017-11-29T11:51:52.149Z,97317.32
2017-11-29T11:54:20.140Z,97307.03
2017-11-29T11:56:47.610Z,97307.14
2017-11-29T11:59:15.135Z,97320.13
2017-11-29T12:01:42.861Z,97313.88
2017-11-29T12:04:10.979Z,97308.03
2017-11-29T12:06:38.456Z,97316.14
2017-11-29T12:09:06.423Z,97308.23
2017-11-29T12:11:33.883Z,97306.42
2017-11-29T12:14:01.338Z,97304.71
2017-11-29T12:16:29.112Z,97303.45
2017-11-29T12:18:56.563Z,97298.47
2017-11-29T12:21:24.016Z,97296.05
2017-11-29T12:23:52.297Z,97294.59
2017-11-29T12:26:19.755Z,97289.34
2017-11-29T12:28:47.216Z,97288.36
2017-11-29T12:31:15.108Z,97287.14
2017-11-29T12:33:42.573Z,97278.37
2017-11-29T12:36:10.094Z,97280.78
2017-11-29T12:38:37.806Z,97282.81
2017-11-29T12:41:05.275Z,97283.32
2017-11-29T12:43:32.739Z,97282.70
2017-11-29T12:46:00.779Z,97283.80
2017-11-29T12:48:39.887Z,97273.43
2017-11-29T12:51:19.679Z,97284.03
2017-11-29T12:53:47.144Z,97273.14
2017-11-29T12:56:14.607Z,97272.52
2017-11-29T12:58:42.658Z,97266.95
2017-11-29T13:01:10.187Z,97263.61
2017-11-29T13:03:37.646Z,97257.91
2017-11-29T13:06:06.286Z,97258.70
2017-11-29T13:08:33.755Z,97247.86
2017-11-29T13:11:01.222Z,97247.75
2017-11-29T13:13:29.271Z,97235.89
2017-11-29T13:15:56.734Z,97240.22
2017-11-29T13:18:24.206Z,97240.14
2017-11-29T13:20:52.262Z,97239.42
2017-11-29T13:23:19.758Z,97236.81
2017-11-29T13:25:47.224Z,97235.22
2017-11-29T13:28:14.941Z,97226.47
2017-11-29T13:30:42.392Z,97230.69
2017-11-29T13:33:09.884Z,97228.61
2017-11-29T13:35:37.640Z,97229.50
2017-11-29T13:38:05.095Z,97219.73
2017-11-29T13:40:32.549Z,97219.94
2017-11-29T13:43:00.324Z,97214.15
2017-11-29T13:45:27.794Z,97218.48
2017-11-29T13:47:55.250Z,97211.84
2017-11-29T13:50:23.041Z,97212.55
2017-11-29T13:52:50.511Z,97213.22
2017-11-29T13:55:17.979Z,97215.27
2017-11-29T13:57:45.694Z,97216.29
2017-11-29T14:00:13.151Z,97211.59
2017-11-29T14:02:40.611Z,97210.80
2017-11-29T14:05:08.389Z,97211.16
2017-11-29T14:07:36.284Z,97216.36
2017-11-29T14:10:03.742Z,97217.17
2017-11-29T14:12:31.474Z,97218.21
2017-11-29T14:14:58.928Z,97216.27
2017-11-29T14:17:26.378Z,97220.45
2017-11-29T14:19:54.803Z,97230.14
2017-11-29T14:22:22.264Z,97224.45
2017-11-29T14:24:49.722Z,97224.29
2017-11-29T14:27:17.677Z,97219.76
2017-11-29T14:29:45.147Z,97229.47
2017-11-29T14:32:12.606Z,97230.36
2017-11-29T14:34:40.391Z,97232.55
2017-11-29T14:37:07.862Z,97231.00
2017-11-29T14:39:35.533Z,97235.23
2017-11-29T14:42:03.667Z,97237.59
2017-11-29T14:44:31.131Z,97235.84
2017-11-29T14:46:58.587Z,97241.92
2017-11-29T14:49:26.368Z,97244.45
2017-11-29T14:51:53.835Z,97240.44
2017-11-29T14:54:21.294Z,97240.44
2017-11-29T14:56:49.351Z,97241.17
2017-11-29T14:59:16.807Z,97243.73
2017-11-29T15:01:44.267Z,97242.19
2017-11-29T15:04:12.035Z,97241.81
2017-11-29T15:06:39.496Z,97235.59
2017-11-29T15:09:07.643Z,97232.42
2017-11-29T15:11:35.327Z,97228.43
2017-11-29T15:14:02.785Z,97226.33
2017-11-29T15:16:32.554Z,97216.60
2017-11-29T15:19:00.759Z,97212.77
2017-11-29T15:21:28.226Z,97205.06
2017-11-29T15:23:55.686Z,97199.33
2017-11-29T15:26:23.691Z,97202.71
2017-11-29T15:28:51.159Z,97205.47
2017-11-29T15:31:18.616Z,97202.41
2017-11-29T15:33:46.471Z,97202.36
2017-11-29T15:36:13.934Z,97195.78
2017-11-29T15:38:41.394Z,97202.30
2017-11-29T15:41:09.146Z,97202.63
2017-11-29T15:43:36.613Z,97210.17
2017-11-29T15:46:04.078Z,97208.00
2017-11-29T15:48:31.835Z,97207.31
2017-11-29T15:50:59.299Z,97209.76
2017-11-29T15:53:26.761Z,97204.40
2017-11-29T15:55:54.525Z,97210.09
2017-11-29T15:58:21.989Z,97208.36
2017-11-29T16:00:49.466Z,97202.10
2017-11-29T16:03:17.544Z,97209.20
2017-11-29T16:05:45.005Z,97205.58
2017-11-29T16:08:12.470Z,97204.48
2017-11-29T16:10:42.670Z,97209.59
2017-11-29T16:13:10.137Z,97206.42
2017-11-29T16:15:37.611Z,97213.49
2017-11-29T16:18:05.664Z,97212.24
2017-11-29T16:20:33.130Z,97212.72
2017-11-29T16:23:00.595Z,97215.88
2017-11-29T16:25:28.345Z,97213.77
2017-11-29T16:27:55.819Z,97216.91
2017-11-29T16:30:23.280Z,97218.55
2017-11-29T16:32:51.039Z,97220.27
2017-11-29T16:35:18.496Z,97218.36
2017-11-29T16:37:45.963Z,97217.73
2017-11-29T16:40:13.595Z,97211.98
2017-11-29T16:42:41.052Z,97208.99
2017-11-29T16:45:08.518Z,97204.36
2017-11-29T16:47:36.760Z,97199.20
2017-11-29T16:50:04.222Z,97197.34
2017-11-29T16:52:31.683Z,97198.58
2017-11-29T16:54:59.402Z,97198.41
2017-11-29T16:57:26.885Z,97192.94
2017-11-29T16:59:54.346Z,97197.27
2017-11-29T17:02:22.083Z,97195.55
2017-11-29T17:04:49.557Z,97199.48
2017-11-29T17:07:17.030Z,97199.70
2017-11-29T17:09:45.084Z,97202.66
2017-11-29T17:12:13.238Z,97198.13
2017-11-29T17:14:40.704Z,97208.29
2017-11-29T17:17:08.388Z,97207.65
2017-11-29T17:19:35.863Z,97212.50
2017-11-29T17:22:03.334Z,97208.25
2017-11-29T17:24:32.202Z,97207.70
2017-11-29T17:26:59.741Z,97212.35
2017-11-29T17:29:27.205Z,97206.68
2017-11-29T17:31:54.990Z,97207.78
2017-11-29T17:34:22.623Z,97208.45
2017-11-29T17:36:50.095Z,97205.06
2017-11-29T17:39:17.979Z,97196.37
2017-11-29T17:41:45.451Z,97199.31
2017-11-29T17:44:12.915Z,97197.58
2017-11-29T17:46:40.676Z,97200.33
2017-11-29T17:49:08.142Z,97190.03
2017-11-29T17:51:35.603Z,97190.98
2017-11-29T17:54:03.362Z,97188.11
2017-11-29T17:56:30.821Z,97194.29
2017-11-29T17:58:58.286Z,97184.65
2017-11-29T18:01:26.355Z,97187.67
2017-11-29T18:03:53.815Z,97185.09
2017-11-29T18:06:21.276Z,97184.17
2017-11-29T18:08:49.034Z,97185.06
2017-11-29T18:11:16.510Z,97179.07
2017-11-29T18:13:44.727Z,97177.45
2017-11-29T18:16:12.343Z,97181.10
2017-11-29T18:18:39.804Z,97178.48
2017-11-29T18:21:07.278Z,97178.09
2017-11-29T18:23:35.027Z,97175.52
2017-11-29T18:26:02.479Z,97178.56
2017-11-29T18:28:29.943Z,97180.05
2017-11-29T18:30:57.588Z,97169.56
2017-11-29T18:33:25.045Z,97173.89
2017-11-29T18:35:52.500Z,97173.91
2017-11-29T18:38:20.412Z,97173.09
2017-11-29T18:40:47.868Z,97167.81
2017-11-29T18:43:15.367Z,97171.62
2017-11-29T18:45:43.399Z,97170.16
2017-11-29T18:48:10.878Z,97169.97
2017-11-29T18:50:38.340Z,97168.27
2017-11-29T18:53:06.017Z,97174.66
2017-11-29T18:55:33.491Z,97162.72
2017-11-29T18:58:00.948Z,97168.08
2017-11-29T19:00:28.774Z,97173.50
2017-11-29T19:02:56.247Z,97175.86
2017-11-29T19:05:23.715Z,97167.91
2017-11-29T19:07:51.660Z,97171.77
2017-11-29T19:10:19.180Z,97163.00
2017-11-29T19:12:46.731Z,97164.51
2017-11-29T19:15:15.385Z,97161.52
2017-11-29T19:17:42.843Z,97163.13
2017-11-29T19:20:10.303Z,97167.79
2017-11-29T19:22:38.131Z,97170.23
2017-11-29T19:25:05.615Z,97168.88
2017-11-29T19:27:33.094Z,97176.30
2017-11-29T19:30:00.756Z,97170.41
2017-11-29T19:32:28.226Z,97162.06
2017-11-29T19:34:55.722Z,97161.81
2017-11-29T19:37:23.814Z,97157.66
2017-11-29T19:39:51.480Z,97153.34
2017-11-29T19:42:18.978Z,97153.59
2017-11-29T19:44:46.731Z,97158.25
2017-11-29T19:47:14.195Z,97158.72
2017-11-29T19:49:41.658Z,97162.48
2017-11-29T19:52:09.727Z,97164.48
2017-11-29T19:54:37.477Z,97167.40
2017-11-29T19:57:04.979Z,97155.45
2017-11-29T19:59:32.738Z,97155.93
2017-11-29T20:02:00.237Z,97154.56
2017-11-29T20:04:27.971Z,97151.28
2017-11-29T20:06:56.014Z,97147.53
2017-11-29T20:09:23.533Z,97149.02
2017-11-29T20:11:51.029Z,97154.67
2017-11-29T20:14:18.828Z,97149.96
2017-11-29T20:16:46.730Z,97161.09
2017-11-29T20:19:14.212Z,97155.52
2017-11-29T20:21:42.033Z,97157.84
2017-11-29T20:24:09.539Z,97154.81
2017-11-29T20:26:36.985Z,97161.58
2017-11-29T20:29:04.750Z,97159.14
2017-11-29T20:31:32.217Z,97149.58
2017-11-29T20:33:59.703Z,97150.66
2017-11-29T20:36:27.602Z,97154.21
2017-11-29T20:38:55.079Z,97150.82
2017-11-29T20:41:23.014Z,97149.04
2017-11-29T20:43:50.999Z,97142.05
2017-11-29T20:46:18.502Z,97141.84
2017-11-29T20:48:45.966Z,97135.66
2017-11-29T20:51:13.716Z,97146.93
2017-11-29T20:53:41.188Z,97139.70
2017-11-29T20:56:08.650Z,97147.14
2017-11-29T20:58:36.680Z,97146.36
2017-11-29T21:01:04.149Z,97142.15
2017-11-29T21:03:31.640Z,97138.89
2017-11-29T21:05:59.366Z,97139.50
2017-11-29T21:08:26.836Z,97139.77
2017-11-29T21:10:54.296Z,97140.27
2017-11-29T21:13:22.034Z,97137.46
2017-11-29T21:15:49.795Z,97134.83
2017-11-29T21:18:17.878Z,97131.35
2017-11-29T21:20:45.961Z,97129.81
2017-11-29T21:23:13.455Z,97127.00
2017-11-29T21:25:40.934Z,97121.18
2017-11-29T21:28:08.659Z,97117.07
2017-11-29T21:30:36.117Z,97114.06
2017-11-29T21:33:03.874Z,97121.35
2017-11-29T21:35:31.689Z,97114.30
2017-11-29T21:37:59.161Z,97120.09
2017-11-29T21:40:26.632Z,97104.16
2017-11-29T21:42:54.514Z,97107.84
2017-11-29T21:45:21.980Z,97111.54
2017-11-29T21:47:49.460Z,97106.23
2017-11-29T21:50:17.324Z,97105.98
2017-11-29T21:52:44.779Z,97101.70
2017-11-29T21:55:12.239Z,97095.64
2017-11-29T21:57:40.027Z,97094.80
2017-11-29T22:00:07.493Z,97093.08
2017-11-29T22:02:34.951Z,97095.89
2017-11-29T22:05:02.712Z,97098.45
2017-11-29T22:07:30.171Z,97103.19
2017-11-29T22:09:57.632Z,97103.50
2017-11-29T22:12:25.386Z,97107.99
2017-11-29T22:14:52.854Z,97106.84
2017-11-29T22:17:20.356Z,97116.58
2017-11-29T22:19:49.002Z,97119.11
2017-11-29T22:22:16.466Z,97123.38
2017-11-29T22:24:43.926Z,97118.13
2017-11-29T22:27:14.764Z,97106.84
2017-11-29T22:29:42.230Z,97114.00
2017-11-29T22:32:09.695Z,97103.19
2017-11-29T22:34:37.437Z,97091.09
2017-11-29T22:37:04.891Z,97092.83
2017-11-29T22:39:32.706Z,97083.97
2017-11-29T22:42:00.443Z,97076.74
2017-11-29T22:44:27.907Z,97079.20
2017-11-29T22:46:55.366Z,97088.91
2017-11-29T22:49:23.130Z,97089.19
2017-11-29T22:51:50.591Z,97089.53
2017-11-29T22:54:18.054Z,97076.84
2017-11-29T22:56:46.130Z,97078.64
2017-11-29T22:59:13.590Z,97076.39
2017-11-29T23:01:41.048Z,97075.76
2017-11-29T23:04:08.809Z,97073.20
2017-11-29T23:06:36.274Z,97068.44
2017-11-29T23:09:03.730Z,97059.66
2017-11-29T23:11:31.511Z,97052.13
2017-11-29T23:13:58.970Z,97053.88
2017-11-29T23:16:26.427Z,97053.53
2017-11-29T23:18:54.173Z,97052.83
2017-11-29T23:21:22.163Z,97051.39
2017-11-29T23:23:49.626Z,97053.45
2017-11-29T23:26:17.463Z,97037.82
2017-11-29T23:28:44.920Z,97037.66
2017-11-29T23:31:12.389Z,97033.44
2017-11-29T23:33:40.115Z,97038.73
2017-11-29T23:36:07.574Z,97041.26
2017-11-29T23:38:35.034Z,97039.02
2017-11-29T23:41:02.862Z,97032.36
2017-11-29T23:43:30.319Z,97034.25
2017-11-29T23:45:57.784Z,97030.92
2017-11-29T23:48:25.543Z,97035.13
2017-11-29T23:50:53.004Z,97032.31
2017-11-29T23:53:20.465Z,97022.02
2017-11-29T23:55:48.227Z,97011.67
2017-11-29T23:58:15.683Z,97011.43
